createdAt,value
2017-07-18T00:00:34.739Z,0
2017-07-18T00:02:59.194Z,0
2017-07-18T00:05:23.583Z,0
2017-07-18T00:07:47.918Z,0
2017-07-18T00:10:12.258Z,0
2017-07-18T00:12:36.638Z,0
2017-07-18T00:15:00.914Z,0
2017-07-18T00:17:27.362Z,0
2017-07-18T00:19:51.694Z,0
2017-07-18T00:24:26.048Z,0
2017-07-18T00:26:41.919Z,0
2017-07-18T00:29:06.221Z,0
2017-07-18T00:31:22.106Z,0
2017-07-18T00:33:37.923Z,0
2017-07-18T00:36:02.212Z,0
2017-07-18T00:38:26.518Z,0
2017-07-18T00:40:50.817Z,0
2017-07-18T00:42:58.289Z,0
2017-07-18T00:45:22.670Z,0
2017-07-18T00:47:39.524Z,0
2017-07-18T00:50:03.839Z,0
2017-07-18T00:52:21.779Z,0
2017-07-18T00:54:46.101Z,0
2017-07-18T00:57:11.507Z,0
2017-07-18T00:59:35.897Z,0
2017-07-18T01:02:00.283Z,0
2017-07-18T01:04:26.621Z,0
2017-07-18T01:06:50.889Z,0
2017-07-18T01:09:15.199Z,0
2017-07-18T01:11:39.576Z,0
2017-07-18T01:14:04.905Z,0
2017-07-18T01:16:30.220Z,0
2017-07-18T01:18:54.593Z,0
2017-07-18T01:21:19.890Z,0
2017-07-18T01:23:44.109Z,0
2017-07-18T01:25:53.572Z,0
2017-07-18T01:28:00.966Z,0
2017-07-18T01:30:17.820Z,0
2017-07-18T01:32:42.108Z,0
2017-07-18T01:36:34.225Z,0
2017-07-18T01:38:58.453Z,0
2017-07-18T01:41:22.636Z,0
2017-07-18T01:43:46.843Z,0
2017-07-18T01:46:11.085Z,0
2017-07-18T01:48:35.277Z,0
2017-07-18T01:51:01.505Z,0
2017-07-18T01:53:25.772Z,0
2017-07-18T01:55:50.080Z,0
2017-07-18T01:58:14.290Z,0
2017-07-18T02:00:39.507Z,0
2017-07-18T02:02:55.271Z,0
2017-07-18T02:05:12.034Z,0
2017-07-18T02:07:27.796Z,0
2017-07-18T02:09:51.937Z,0
2017-07-18T02:12:16.236Z,0
2017-07-18T02:14:40.432Z,0
2017-07-18T02:17:04.633Z,0
2017-07-18T02:19:28.820Z,0
2017-07-18T02:21:53.002Z,0
2017-07-18T02:24:08.795Z,0
2017-07-18T02:26:32.916Z,0
2017-07-18T02:28:57.093Z,0
2017-07-18T02:33:33.309Z,0
2017-07-18T02:35:57.471Z,0
2017-07-18T02:38:21.617Z,0
2017-07-18T02:42:55.738Z,0
2017-07-18T02:45:19.897Z,0
2017-07-18T02:47:35.617Z,0
2017-07-18T02:51:52.818Z,0
2017-07-18T02:54:00.079Z,0
2017-07-18T02:56:07.344Z,0
2017-07-18T02:58:23.033Z,0
2017-07-18T03:00:47.140Z,0
2017-07-18T03:03:02.819Z,0
2017-07-18T03:05:26.931Z,0
2017-07-18T03:07:42.636Z,0
2017-07-18T03:10:06.872Z,0
2017-07-18T03:12:23.641Z,0
2017-07-18T03:14:48.782Z,0
2017-07-18T03:17:14.002Z,0
2017-07-18T03:19:40.134Z,0
2017-07-18T03:22:04.278Z,0
2017-07-18T03:24:28.492Z,0
2017-07-18T03:26:52.624Z,0
2017-07-18T03:29:08.311Z,0
2017-07-18T03:31:32.432Z,0
2017-07-18T03:33:58.575Z,0
2017-07-18T03:38:16.753Z,0
2017-07-18T03:40:40.848Z,0
2017-07-18T03:43:04.989Z,0
2017-07-18T03:45:29.107Z,0
2017-07-18T03:47:36.365Z,0
2017-07-18T03:50:00.474Z,5
2017-07-18T03:52:24.578Z,5
2017-07-18T03:54:48.709Z,5
2017-07-18T03:57:12.900Z,10
2017-07-18T03:59:28.644Z,10
2017-07-18T04:01:52.753Z,10
2017-07-18T04:04:16.957Z,15
2017-07-18T04:06:32.696Z,15
2017-07-18T04:08:56.925Z,15
2017-07-18T04:11:21.041Z,20
2017-07-18T04:13:45.205Z,20
2017-07-18T04:16:16.153Z,25
2017-07-18T04:18:40.346Z,25
2017-07-18T04:21:04.516Z,30
2017-07-18T04:23:28.704Z,35
2017-07-18T04:25:46.495Z,35
2017-07-18T04:28:11.792Z,40
2017-07-18T04:30:36.047Z,40
2017-07-18T04:33:00.344Z,50
2017-07-18T04:35:24.632Z,65
2017-07-18T04:37:49.969Z,65
2017-07-18T04:40:06.936Z,60
2017-07-18T04:42:31.385Z,85
2017-07-18T04:44:56.820Z,95
2017-07-18T04:47:12.921Z,100
2017-07-18T04:49:37.576Z,110
2017-07-18T04:52:02.422Z,115
2017-07-18T04:54:27.361Z,120
2017-07-18T04:56:52.403Z,125
2017-07-18T04:59:09.037Z,135
2017-07-18T05:01:25.709Z,140
2017-07-18T05:03:44.552Z,145
2017-07-18T05:06:03.538Z,150
2017-07-18T05:08:29.070Z,155
2017-07-18T05:10:47.104Z,165
2017-07-18T05:13:12.773Z,170
2017-07-18T05:15:38.518Z,180
2017-07-18T05:18:04.364Z,170
2017-07-18T05:20:30.137Z,155
2017-07-18T05:22:55.854Z,200
2017-07-18T05:25:22.623Z,175
2017-07-18T05:27:48.343Z,170
2017-07-18T05:30:21.182Z,175
2017-07-18T05:32:46.887Z,230
2017-07-18T05:35:14.619Z,240
2017-07-18T05:37:48.170Z,260
2017-07-18T05:40:14.096Z,270
2017-07-18T05:42:38.157Z,300
2017-07-18T05:44:55.661Z,320
2017-07-18T05:47:29.825Z,340
2017-07-18T05:49:56.014Z,860
2017-07-18T05:53:41.618Z,1100
2017-07-18T05:56:07.996Z,1200
2017-07-18T05:58:34.402Z,1230
2017-07-18T06:03:02.914Z,1360
2017-07-18T06:05:20.897Z,1395
2017-07-18T06:07:47.537Z,1335
2017-07-18T06:10:05.629Z,1300
2017-07-18T06:12:23.751Z,1380
2017-07-18T06:14:50.482Z,1390
2017-07-18T06:17:17.314Z,1400
2017-07-18T06:19:44.373Z,1355
2017-07-18T06:22:11.301Z,1500
2017-07-18T06:24:38.374Z,1375
2017-07-18T06:27:12.320Z,1470
2017-07-18T06:29:39.462Z,1355
2017-07-18T06:32:06.637Z,1405
2017-07-18T06:34:33.806Z,1290
2017-07-18T06:36:52.439Z,545
2017-07-18T06:39:19.732Z,560
2017-07-18T06:41:39.377Z,560
2017-07-18T06:44:06.776Z,580
2017-07-18T06:46:34.258Z,610
2017-07-18T06:49:01.834Z,640
2017-07-18T06:51:29.300Z,1040
2017-07-18T06:53:56.874Z,1610
2017-07-18T06:56:15.812Z,1535
2017-07-18T06:58:35.969Z,1335
2017-07-18T07:01:03.477Z,565
2017-07-18T07:03:31.925Z,570
2017-07-18T07:05:50.615Z,545
2017-07-18T07:08:18.769Z,595
2017-07-18T07:10:37.180Z,650
2017-07-18T07:13:03.978Z,695
2017-07-18T07:15:24.070Z,680
2017-07-18T07:19:26.460Z,645
2017-07-18T07:21:52.873Z,635
2017-07-18T07:24:10.603Z,565
2017-07-18T07:26:36.803Z,515
2017-07-18T07:29:02.920Z,510
2017-07-18T07:31:29.002Z,560
2017-07-18T07:34:02.126Z,600
2017-07-18T07:36:28.422Z,695
2017-07-18T07:38:54.415Z,660
2017-07-18T07:41:20.367Z,595
2017-07-18T07:43:46.355Z,575
2017-07-18T07:46:12.369Z,570
2017-07-18T07:48:38.411Z,550
2017-07-18T07:51:04.519Z,530
2017-07-18T07:53:30.683Z,515
2017-07-18T07:55:56.809Z,505
2017-07-18T07:58:14.486Z,490
2017-07-18T08:00:40.707Z,500
2017-07-18T08:03:06.948Z,485
2017-07-18T08:05:24.720Z,480
2017-07-18T08:07:51.122Z,490
2017-07-18T08:10:00.331Z,495
2017-07-18T08:12:18.118Z,505
2017-07-18T08:14:44.512Z,500
2017-07-18T08:17:10.922Z,510
2017-07-18T08:19:37.337Z,530
2017-07-18T08:22:03.812Z,525
2017-07-18T08:24:31.280Z,540
2017-07-18T08:26:57.770Z,565
2017-07-18T08:29:25.330Z,565
2017-07-18T08:33:37.081Z,545
2017-07-18T08:36:05.044Z,535
2017-07-18T08:38:38.442Z,500
2017-07-18T08:41:04.898Z,440
2017-07-18T08:43:31.143Z,430
2017-07-18T08:46:00.439Z,420
2017-07-18T08:48:35.689Z,410
2017-07-18T08:51:11.756Z,420
2017-07-18T08:53:37.979Z,410
2017-07-18T08:56:04.296Z,420
2017-07-18T08:58:30.478Z,435
2017-07-18T09:00:56.982Z,425
2017-07-18T09:03:23.507Z,405
2017-07-18T09:05:49.683Z,405
2017-07-18T09:08:16.251Z,405
2017-07-18T09:10:42.558Z,405
2017-07-18T09:13:00.451Z,395
2017-07-18T09:15:26.944Z,395
2017-07-18T09:20:04.006Z,355
2017-07-18T09:22:30.382Z,375
2017-07-18T09:27:07.341Z,360
2017-07-18T09:29:33.716Z,355
2017-07-18T09:33:53.480Z,325
2017-07-18T09:36:11.260Z,320
2017-07-18T09:38:37.567Z,315
2017-07-18T09:40:55.436Z,305
2017-07-18T09:43:22.078Z,300
2017-07-18T09:45:39.906Z,295
2017-07-18T09:48:06.201Z,285
2017-07-18T09:50:32.572Z,285
2017-07-18T09:52:58.883Z,280
2017-07-18T09:55:25.206Z,255
2017-07-18T09:57:51.529Z,195
2017-07-18T10:00:17.731Z,250
2017-07-18T10:02:43.834Z,205
2017-07-18T10:05:09.942Z,210
2017-07-18T10:07:35.961Z,215
2017-07-18T10:10:01.916Z,215
2017-07-18T10:12:27.914Z,240
2017-07-18T10:14:53.832Z,220
2017-07-18T10:17:19.748Z,260
2017-07-18T10:19:45.559Z,235
2017-07-18T10:22:11.391Z,230
2017-07-18T10:24:37.320Z,220
2017-07-18T10:29:04.929Z,200
2017-07-18T10:31:22.205Z,195
2017-07-18T10:33:47.968Z,185
2017-07-18T10:36:13.731Z,180
2017-07-18T10:38:39.465Z,180
2017-07-18T10:40:56.684Z,175
2017-07-18T10:43:22.356Z,175
2017-07-18T10:45:48.002Z,170
2017-07-18T10:48:13.978Z,165
2017-07-18T10:50:40.175Z,155
2017-07-18T10:53:08.095Z,165
2017-07-18T10:55:32.736Z,165
2017-07-18T10:57:58.537Z,160
2017-07-18T11:00:24.126Z,160
2017-07-18T11:02:49.868Z,160
2017-07-18T11:05:15.473Z,155
2017-07-18T11:09:17.459Z,120
2017-07-18T11:11:43.124Z,105
2017-07-18T11:14:08.931Z,135
2017-07-18T11:16:34.400Z,105
2017-07-18T11:19:00.107Z,145
2017-07-18T11:21:25.763Z,145
2017-07-18T11:23:51.316Z,145
2017-07-18T11:26:16.880Z,105
2017-07-18T11:28:42.475Z,135
2017-07-18T11:31:08.661Z,90
2017-07-18T11:33:34.161Z,120
2017-07-18T11:36:02.256Z,90
2017-07-18T11:38:27.822Z,90
2017-07-18T11:40:53.441Z,95
2017-07-18T11:43:19.607Z,100
2017-07-18T11:45:45.866Z,100
2017-07-18T11:48:11.532Z,100
2017-07-18T11:50:37.004Z,100
2017-07-18T11:53:02.570Z,130
2017-07-18T11:55:28.085Z,130
2017-07-18T11:57:53.479Z,130
2017-07-18T12:00:19.052Z,130
2017-07-18T12:02:44.503Z,130
2017-07-18T12:05:10.036Z,130
2017-07-18T12:07:35.579Z,125
2017-07-18T12:10:01.084Z,120
2017-07-18T12:12:27.203Z,125
2017-07-18T12:14:54.431Z,115
2017-07-18T12:17:20.247Z,110
2017-07-18T12:19:45.854Z,130
2017-07-18T12:22:11.967Z,130
2017-07-18T12:24:38.247Z,130
2017-07-18T12:27:06.387Z,110
2017-07-18T12:29:31.802Z,110
2017-07-18T12:31:57.776Z,110
2017-07-18T12:34:24.144Z,110
2017-07-18T12:36:51.703Z,110
2017-07-18T12:39:16.402Z,110
2017-07-18T12:41:42.115Z,110
2017-07-18T12:44:07.691Z,110
2017-07-18T12:46:33.247Z,105
2017-07-18T12:48:58.900Z,105
2017-07-18T12:51:24.456Z,105
2017-07-18T12:53:49.973Z,105
2017-07-18T12:56:15.482Z,115
2017-07-18T12:58:41.095Z,115
2017-07-18T13:01:06.716Z,100
2017-07-18T13:03:32.332Z,95
2017-07-18T13:05:57.968Z,95
2017-07-18T13:08:23.562Z,100
2017-07-18T13:10:49.164Z,100
2017-07-18T13:13:14.690Z,100
2017-07-18T13:15:40.188Z,110
2017-07-18T13:18:05.712Z,105
2017-07-18T13:20:31.259Z,110
2017-07-18T13:22:56.862Z,120
2017-07-18T13:25:22.493Z,120
2017-07-18T13:27:47.910Z,110
2017-07-18T13:30:13.521Z,115
2017-07-18T13:32:39.153Z,110
2017-07-18T13:35:04.668Z,110
2017-07-18T13:37:30.200Z,110
2017-07-18T13:39:55.846Z,110
2017-07-18T13:42:21.314Z,115
2017-07-18T13:44:46.942Z,120
2017-07-18T13:47:12.583Z,125
2017-07-18T13:49:38.163Z,120
2017-07-18T13:52:03.793Z,120
2017-07-18T13:54:29.441Z,120
2017-07-18T13:56:55.014Z,120
2017-07-18T13:59:20.663Z,120
2017-07-18T14:01:46.277Z,125
2017-07-18T14:04:03.320Z,125
2017-07-18T14:06:28.882Z,125
2017-07-18T14:08:54.510Z,125
2017-07-18T14:11:20.137Z,125
2017-07-18T14:13:45.752Z,120
2017-07-18T14:16:11.373Z,120
2017-07-18T14:18:28.454Z,115
2017-07-18T14:20:54.100Z,110
2017-07-18T14:23:19.733Z,110
2017-07-18T14:25:45.342Z,105
2017-07-18T14:30:13.072Z,105
2017-07-18T14:32:38.546Z,105
2017-07-18T14:35:04.039Z,105
2017-07-18T14:37:29.697Z,105
2017-07-18T14:39:55.298Z,100
2017-07-18T14:42:12.360Z,100
2017-07-18T14:44:29.501Z,95
2017-07-18T14:46:55.150Z,95
2017-07-18T14:49:20.800Z,90
2017-07-18T14:51:46.389Z,95
2017-07-18T14:54:11.855Z,95
2017-07-18T14:56:37.415Z,95
2017-07-18T14:59:02.927Z,95
2017-07-18T15:01:28.451Z,95
2017-07-18T15:03:53.947Z,95
2017-07-18T15:06:19.453Z,90
2017-07-18T15:08:45.013Z,85
2017-07-18T15:11:10.417Z,75
2017-07-18T15:13:35.917Z,75
2017-07-18T15:16:01.409Z,75
2017-07-18T15:18:26.821Z,75
2017-07-18T15:20:52.295Z,85
2017-07-18T15:23:17.839Z,75
2017-07-18T15:25:43.275Z,80
2017-07-18T15:28:08.685Z,80
2017-07-18T15:30:34.069Z,80
2017-07-18T15:32:59.531Z,80
2017-07-18T15:39:56.087Z,75
2017-07-18T15:42:21.438Z,75
2017-07-18T15:44:46.820Z,75
2017-07-18T15:47:12.151Z,75
2017-07-18T15:49:37.527Z,75
2017-07-18T15:53:38.810Z,75
2017-07-18T15:58:05.846Z,75
2017-07-18T16:00:31.157Z,75
2017-07-18T16:04:15.386Z,70
2017-07-18T16:06:40.733Z,70
2017-07-18T16:09:06.063Z,70
2017-07-18T16:13:33.072Z,70
2017-07-18T16:15:58.412Z,70
2017-07-18T16:18:15.168Z,70
2017-07-18T16:20:40.489Z,70
2017-07-18T16:23:05.818Z,70
2017-07-18T16:25:31.237Z,70
2017-07-18T16:27:56.685Z,70
2017-07-18T16:30:22.095Z,70
2017-07-18T16:32:47.363Z,70
2017-07-18T16:35:12.669Z,70
2017-07-18T16:37:37.940Z,65
2017-07-18T16:39:54.837Z,65
2017-07-18T16:42:20.249Z,65
2017-07-18T16:44:37.030Z,60
2017-07-18T16:46:45.338Z,50
2017-07-18T16:49:10.652Z,45
2017-07-18T16:51:27.454Z,55
2017-07-18T16:53:52.757Z,60
2017-07-18T16:56:18.084Z,55
2017-07-18T16:58:43.279Z,55
2017-07-18T17:01:08.581Z,55
2017-07-18T17:03:33.777Z,55
2017-07-18T17:07:35.022Z,55
2017-07-18T17:10:00.248Z,55
2017-07-18T17:12:25.417Z,55
2017-07-18T17:14:50.626Z,50
2017-07-18T17:17:15.899Z,50
2017-07-18T17:19:41.110Z,50
2017-07-18T17:24:00.104Z,50
2017-07-18T17:26:25.298Z,50
2017-07-18T17:28:50.474Z,50
2017-07-18T17:31:07.128Z,50
2017-07-18T17:33:32.953Z,50
2017-07-18T17:35:49.618Z,50
2017-07-18T17:40:16.455Z,45
2017-07-18T17:42:41.635Z,45
2017-07-18T17:45:06.792Z,45
2017-07-18T17:47:31.923Z,45
2017-07-18T17:49:57.061Z,45
2017-07-18T17:52:13.646Z,40
2017-07-18T17:54:38.989Z,40
2017-07-18T17:57:04.185Z,40
2017-07-18T17:59:29.294Z,40
2017-07-18T18:01:54.439Z,40
2017-07-18T18:04:19.718Z,40
2017-07-18T18:06:45.599Z,40
2017-07-18T18:09:10.623Z,35
2017-07-18T18:11:27.165Z,35
2017-07-18T18:13:52.318Z,35
2017-07-18T18:16:09.014Z,35
2017-07-18T18:18:34.195Z,30
2017-07-18T18:20:59.482Z,30
2017-07-18T18:23:24.744Z,30
2017-07-18T18:25:49.873Z,30
2017-07-18T18:28:14.917Z,25
2017-07-18T18:30:40.057Z,25
2017-07-18T18:34:35.987Z,25
2017-07-18T18:36:52.610Z,20
2017-07-18T18:39:17.770Z,20
2017-07-18T18:41:34.281Z,20
2017-07-18T18:43:59.373Z,20
2017-07-18T18:46:24.465Z,15
2017-07-18T18:48:49.461Z,15
2017-07-18T18:51:14.637Z,15
2017-07-18T18:53:39.829Z,10
2017-07-18T18:55:56.380Z,10
2017-07-18T18:58:12.928Z,10
2017-07-18T19:02:48.647Z,5
2017-07-18T19:05:05.176Z,5
2017-07-18T19:07:30.186Z,5
2017-07-18T19:09:55.164Z,5
2017-07-18T19:12:20.176Z,5
2017-07-18T19:14:45.182Z,5
2017-07-18T19:17:10.145Z,0
2017-07-18T19:19:35.072Z,0
2017-07-18T19:22:00.019Z,0
2017-07-18T19:24:16.514Z,0
2017-07-18T19:26:41.510Z,0
2017-07-18T19:29:06.430Z,0
2017-07-18T19:31:31.376Z,0
2017-07-18T19:33:56.330Z,0
2017-07-18T19:36:12.736Z,0
2017-07-18T19:38:29.111Z,0
2017-07-18T19:42:55.755Z,0
2017-07-18T19:45:20.652Z,0
2017-07-18T19:47:45.544Z,0
2017-07-18T19:50:10.424Z,0
2017-07-18T19:52:26.824Z,0
2017-07-18T19:54:43.197Z,0
2017-07-18T19:57:08.085Z,0
2017-07-18T19:59:33.002Z,0
2017-07-18T20:03:59.608Z,0
2017-07-18T20:06:11.511Z,0
2017-07-18T20:08:36.418Z,0
2017-07-18T20:11:01.224Z,0
2017-07-18T20:13:26.068Z,0
2017-07-18T20:15:50.847Z,0
2017-07-18T20:18:15.645Z,0
2017-07-18T20:20:40.448Z,0
2017-07-18T20:23:05.305Z,0
2017-07-18T20:25:21.602Z,0
2017-07-18T20:27:46.418Z,0
2017-07-18T20:30:11.208Z,0
2017-07-18T20:32:35.969Z,0
2017-07-18T20:35:00.707Z,0
2017-07-18T20:37:17.050Z,0
2017-07-18T20:39:41.856Z,0
2017-07-18T20:42:06.652Z,0
2017-07-18T20:44:31.495Z,0
2017-07-18T20:46:56.360Z,0
2017-07-18T20:51:22.687Z,0
2017-07-18T20:53:39.065Z,0
2017-07-18T20:56:03.856Z,0
2017-07-18T20:58:28.688Z,0
2017-07-18T21:00:53.377Z,0
2017-07-18T21:03:18.244Z,0
2017-07-18T21:05:42.938Z,0
2017-07-18T21:08:07.718Z,0
2017-07-18T21:12:34.225Z,0
2017-07-18T21:14:56.125Z,0
2017-07-18T21:17:20.918Z,0
2017-07-18T21:19:37.243Z,0
2017-07-18T21:22:02.049Z,0
2017-07-18T21:24:26.836Z,0
2017-07-18T21:26:51.582Z,0
2017-07-18T21:29:16.369Z,0
2017-07-18T21:31:41.116Z,0
2017-07-18T21:34:06.020Z,0
2017-07-18T21:38:40.959Z,0
2017-07-18T21:41:05.735Z,0
2017-07-18T21:43:30.434Z,0
2017-07-18T21:45:55.162Z,0
2017-07-18T21:48:19.939Z,0
2017-07-18T21:50:36.256Z,0
2017-07-18T21:53:01.012Z,0
2017-07-18T21:55:25.744Z,0
2017-07-18T21:57:50.482Z,0
2017-07-18T22:00:15.227Z,0
2017-07-18T22:02:39.952Z,0
2017-07-18T22:04:56.197Z,0
2017-07-18T22:07:12.518Z,0
2017-07-18T22:09:37.233Z,0
2017-07-18T22:12:01.946Z,0
2017-07-18T22:14:26.625Z,0
2017-07-18T22:16:51.332Z,0
2017-07-18T22:19:16.099Z,0
2017-07-18T22:21:32.326Z,0
2017-07-18T22:23:48.557Z,0
2017-07-18T22:26:04.788Z,0
2017-07-18T22:28:29.461Z,0
2017-07-18T22:30:54.147Z,0
2017-07-18T22:33:18.768Z,0
2017-07-18T22:35:34.946Z,0
2017-07-18T22:37:51.141Z,0
2017-07-18T22:40:15.851Z,0
2017-07-18T22:42:32.070Z,0
2017-07-18T22:44:56.859Z,0
2017-07-18T22:47:23.270Z,0
2017-07-18T22:49:47.947Z,0
2017-07-18T22:52:12.679Z,0
2017-07-18T22:54:37.380Z,0
2017-07-18T22:57:02.026Z,0
2017-07-18T22:59:26.644Z,0
2017-07-18T23:01:51.339Z,0
2017-07-18T23:04:15.983Z,0
2017-07-18T23:06:32.150Z,0
2017-07-18T23:10:58.348Z,0
2017-07-18T23:13:22.979Z,0
2017-07-18T23:15:47.580Z,0
2017-07-18T23:18:12.198Z,0
2017-07-18T23:20:36.785Z,0
2017-07-18T23:22:52.955Z,0
2017-07-18T23:25:09.199Z,0
2017-07-18T23:27:33.822Z,0
2017-07-18T23:29:58.458Z,0
2017-07-18T23:32:23.081Z,0
2017-07-18T23:34:39.263Z,0
2017-07-18T23:37:03.927Z,0
2017-07-18T23:39:20.063Z,0
2017-07-18T23:41:44.722Z,0
2017-07-18T23:44:09.321Z,0
2017-07-18T23:48:44.046Z,0
2017-07-18T23:51:08.703Z,0
2017-07-18T23:53:33.327Z,0
2017-07-18T23:55:57.946Z,0
2017-07-18T23:58:22.640Z,0
